createdAt,value
2023-10-20T00:02:29.111Z,52.70
2023-10-20T00:04:56.213Z,52.65
2023-10-20T00:07:23.413Z,52.74
2023-10-20T00:09:51.057Z,52.51
2023-10-20T00:12:18.276Z,52.80
2023-10-20T00:14:46.074Z,52.58
2023-10-20T00:17:13.277Z,52.59
2023-10-20T00:19:40.093Z,52.54
2023-10-20T00:22:07.463Z,52.52
2023-10-20T00:24:34.507Z,52.61
2023-10-20T00:27:01.725Z,52.83
2023-10-20T00:29:28.534Z,52.64
2023-10-20T00:31:55.825Z,52.95
2023-10-20T00:34:22.836Z,53.05
2023-10-20T00:36:50.011Z,53.09
2023-10-20T00:39:17.759Z,52.95
2023-10-20T00:41:45.056Z,53.27
2023-10-20T00:44:11.871Z,52.71
2023-10-20T00:46:39.035Z,52.50
2023-10-20T00:49:06.202Z,52.72
2023-10-20T00:51:33.376Z,52.37
2023-10-20T00:54:00.828Z,52.39
2023-10-20T00:56:28.155Z,52.41
2023-10-20T00:58:54.911Z,52.40
2023-10-20T01:01:22.150Z,52.46
2023-10-20T01:03:49.629Z,52.66
2023-10-20T01:06:16.769Z,52.67
2023-10-20T01:08:43.752Z,52.96
2023-10-20T01:11:10.877Z,52.92
2023-10-20T01:13:38.498Z,53.44
2023-10-20T01:16:05.917Z,53.48
2023-10-20T01:18:33.390Z,54.00
2023-10-20T01:21:00.501Z,53.73
2023-10-20T01:23:27.372Z,53.55
2023-10-20T01:25:54.539Z,53.69
2023-10-20T01:28:21.359Z,54.32
2023-10-20T01:30:48.863Z,54.34
2023-10-20T01:33:15.995Z,54.21
2023-10-20T01:35:43.149Z,53.98
2023-10-20T01:38:12.019Z,53.75
2023-10-20T01:40:39.123Z,53.16
2023-10-20T01:43:05.895Z,53.16
2023-10-20T01:45:33.029Z,52.91
2023-10-20T01:47:59.853Z,53.41
2023-10-20T01:50:27.889Z,53.09
2023-10-20T01:52:54.776Z,53.17
2023-10-20T01:55:21.964Z,52.80
2023-10-20T01:57:48.768Z,53.04
2023-10-20T02:00:16.335Z,52.75
2023-10-20T02:02:43.368Z,52.71
2023-10-20T02:05:10.928Z,52.73
2023-10-20T02:07:38.176Z,52.77
2023-10-20T02:10:07.969Z,52.96
2023-10-20T02:12:35.528Z,52.63
2023-10-20T02:15:02.682Z,52.63
2023-10-20T02:17:30.189Z,52.92
2023-10-20T02:19:58.602Z,52.69
2023-10-20T02:22:26.395Z,52.84
2023-10-20T02:24:54.311Z,52.82
2023-10-20T02:27:21.305Z,52.75
2023-10-20T02:29:48.456Z,52.56
2023-10-20T02:32:15.380Z,52.55
2023-10-20T02:34:42.594Z,52.64
2023-10-20T02:37:13.344Z,52.39
2023-10-20T02:39:40.916Z,52.45
2023-10-20T02:42:07.763Z,52.44
2023-10-20T02:44:34.998Z,52.62
2023-10-20T02:47:01.985Z,52.35
2023-10-20T02:49:29.154Z,52.54
2023-10-20T02:51:56.947Z,52.66
2023-10-20T02:54:24.114Z,52.61
2023-10-20T02:56:50.954Z,52.61
2023-10-20T02:59:18.110Z,52.68
2023-10-20T03:01:44.901Z,52.76
2023-10-20T03:04:12.142Z,52.96
2023-10-20T03:06:39.076Z,53.04
2023-10-20T03:09:06.242Z,53.03
2023-10-20T03:11:33.072Z,53.48
2023-10-20T03:14:00.488Z,53.15
2023-10-20T03:16:27.967Z,53.30
2023-10-20T03:18:55.138Z,53.67
2023-10-20T03:21:22.868Z,53.91
2023-10-20T03:23:50.277Z,53.87
2023-10-20T03:26:17.229Z,53.63
2023-10-20T03:28:45.312Z,53.89
2023-10-20T03:31:12.593Z,53.66
2023-10-20T03:33:39.752Z,53.53
2023-10-20T03:36:06.705Z,53.46
2023-10-20T03:38:34.321Z,53.41
2023-10-20T03:41:08.122Z,53.36
2023-10-20T03:43:36.518Z,53.84
2023-10-20T03:46:04.329Z,53.40
2023-10-20T03:48:34.565Z,53.18
2023-10-20T03:51:01.594Z,53.40
2023-10-20T03:53:28.886Z,53.50
2023-10-20T03:56:02.541Z,53.18
2023-10-20T03:58:30.611Z,53.40
2023-10-20T04:01:03.860Z,53.42
2023-10-20T04:03:31.606Z,53.30
2023-10-20T04:05:58.849Z,53.34
2023-10-20T04:08:26.101Z,53.43
2023-10-20T04:10:59.351Z,53.65
2023-10-20T04:13:26.632Z,53.65
2023-10-20T04:15:56.216Z,53.69
2023-10-20T04:18:27.815Z,53.77
2023-10-20T04:20:58.863Z,53.96
2023-10-20T04:23:27.563Z,53.84
2023-10-20T04:25:54.437Z,54.39
2023-10-20T04:28:29.389Z,54.27
2023-10-20T04:31:14.555Z,54.27
2023-10-20T04:33:59.931Z,54.32
2023-10-20T04:36:45.363Z,53.64
2023-10-20T04:39:31.262Z,53.84
2023-10-20T04:42:18.012Z,53.58
2023-10-20T04:45:03.679Z,53.32
2023-10-20T04:47:33.473Z,53.65
2023-10-20T04:50:03.176Z,53.70
2023-10-20T04:52:48.667Z,53.63
2023-10-20T04:55:27.609Z,53.36
2023-10-20T04:57:57.886Z,53.57
2023-10-20T05:00:24.995Z,53.62
2023-10-20T05:02:52.769Z,53.89
2023-10-20T05:05:24.291Z,53.70
2023-10-20T05:07:52.224Z,53.63
2023-10-20T05:10:20.700Z,53.79
2023-10-20T05:12:48.053Z,53.70
2023-10-20T05:15:15.680Z,53.51
2023-10-20T05:17:42.690Z,53.69
2023-10-20T05:20:11.317Z,53.70
2023-10-20T05:22:38.154Z,53.36
2023-10-20T05:25:05.770Z,53.39
2023-10-20T05:27:32.524Z,53.45
2023-10-20T05:29:59.586Z,53.67
2023-10-20T05:32:26.434Z,53.88
2023-10-20T05:34:55.688Z,53.33
2023-10-20T05:37:25.316Z,53.50
2023-10-20T05:39:52.710Z,53.67
2023-10-20T05:42:19.560Z,53.89
2023-10-20T05:45:02.571Z,53.52
2023-10-20T05:47:33.159Z,53.49
2023-10-20T05:50:02.078Z,53.63
2023-10-20T05:52:28.945Z,53.37
2023-10-20T05:54:57.195Z,53.35
2023-10-20T05:57:23.935Z,53.41
2023-10-20T05:59:51.556Z,53.43
2023-10-20T06:02:18.454Z,53.55
2023-10-20T06:04:45.565Z,53.62
2023-10-20T06:07:12.372Z,53.45
2023-10-20T06:09:40.785Z,53.21
2023-10-20T06:12:11.580Z,53.52
2023-10-20T06:14:38.907Z,53.67
2023-10-20T06:17:05.767Z,53.67
2023-10-20T06:19:33.014Z,53.77
2023-10-20T06:22:01.654Z,53.58
2023-10-20T06:24:29.335Z,53.88
2023-10-20T06:27:03.788Z,53.51
2023-10-20T06:29:34.984Z,53.35
2023-10-20T06:32:20.540Z,53.71
2023-10-20T06:34:48.783Z,53.76
2023-10-20T06:37:25.953Z,54.17
2023-10-20T06:39:53.212Z,53.67
2023-10-20T06:42:21.682Z,54.06
2023-10-20T06:44:50.405Z,54.17
2023-10-20T06:47:18.095Z,54.58
2023-10-20T06:49:45.837Z,53.78
2023-10-20T06:52:18.289Z,54.74
2023-10-20T06:55:02.530Z,54.81
2023-10-20T06:57:33.431Z,54.77
2023-10-20T07:00:00.922Z,55.10
2023-10-20T07:02:29.164Z,55.05
2023-10-20T07:04:57.612Z,54.82
2023-10-20T07:07:24.653Z,54.35
2023-10-20T07:09:51.827Z,54.45
2023-10-20T07:12:18.687Z,54.34
2023-10-20T07:14:45.870Z,54.32
2023-10-20T07:17:13.286Z,54.25
2023-10-20T07:19:40.478Z,54.80
2023-10-20T07:22:07.315Z,54.28
2023-10-20T07:24:34.979Z,54.67
2023-10-20T07:27:03.223Z,54.81
2023-10-20T07:29:30.869Z,54.72
2023-10-20T07:31:57.856Z,54.36
2023-10-20T07:34:26.450Z,54.45
2023-10-20T07:36:53.388Z,54.56
2023-10-20T07:39:20.836Z,55.03
2023-10-20T07:41:48.948Z,55.03
2023-10-20T07:44:19.909Z,55.08
2023-10-20T07:46:46.742Z,54.77
2023-10-20T07:49:13.884Z,55.37
2023-10-20T07:51:41.016Z,55.95
2023-10-20T07:54:09.582Z,55.82
2023-10-20T07:56:36.806Z,55.09
2023-10-20T07:59:05.185Z,56.09
2023-10-20T08:01:32.179Z,56.09
2023-10-20T08:03:59.601Z,55.48
2023-10-20T08:06:27.182Z,55.61
2023-10-20T08:08:54.457Z,55.73
2023-10-20T08:11:21.331Z,55.41
2023-10-20T08:13:52.036Z,55.80
2023-10-20T08:16:19.995Z,55.85
2023-10-20T08:18:47.247Z,56.20
2023-10-20T08:21:14.144Z,55.95
2023-10-20T08:23:41.280Z,56.01
2023-10-20T08:26:14.429Z,54.92
2023-10-20T08:28:41.577Z,55.28
2023-10-20T08:31:09.563Z,55.41
2023-10-20T08:33:39.776Z,55.38
2023-10-20T08:36:16.723Z,55.56
2023-10-20T08:38:44.915Z,56.14
2023-10-20T08:41:13.832Z,56.13
2023-10-20T08:43:45.243Z,55.82
2023-10-20T08:46:12.893Z,55.95
2023-10-20T08:48:41.003Z,56.03
2023-10-20T08:51:08.899Z,56.44
2023-10-20T08:53:37.803Z,55.94
2023-10-20T08:56:06.167Z,56.29
2023-10-20T08:58:33.387Z,56.11
2023-10-20T09:01:00.731Z,55.82
2023-10-20T09:03:28.447Z,55.62
2023-10-20T09:06:06.718Z,55.27
2023-10-20T09:08:37.828Z,55.18
2023-10-20T09:11:10.982Z,55.35
2023-10-20T09:13:41.141Z,55.72
2023-10-20T09:16:09.975Z,55.30
2023-10-20T09:18:50.823Z,54.29
2023-10-20T09:21:22.213Z,54.37
2023-10-20T09:24:03.463Z,53.45
2023-10-20T09:26:34.442Z,54.23
2023-10-20T09:29:01.868Z,54.38
2023-10-20T09:31:29.444Z,53.96
2023-10-20T09:33:56.663Z,53.76
2023-10-20T09:36:26.721Z,53.32
2023-10-20T09:38:55.302Z,53.03
2023-10-20T09:41:31.336Z,53.70
2023-10-20T09:44:08.246Z,54.56
2023-10-20T09:46:50.548Z,55.21
2023-10-20T09:49:23.046Z,55.24
2023-10-20T09:54:24.093Z,55.55
2023-10-20T09:56:50.925Z,55.38
2023-10-20T09:59:22.122Z,56.29
2023-10-20T10:01:49.142Z,55.86
2023-10-20T10:04:22.931Z,57.31
2023-10-20T10:06:49.853Z,56.71
2023-10-20T10:09:17.445Z,56.60
2023-10-20T10:11:44.505Z,56.57
2023-10-20T10:14:22.054Z,55.83
2023-10-20T10:16:55.384Z,57.18
2023-10-20T10:19:29.258Z,56.00
2023-10-20T10:21:59.812Z,55.99
2023-10-20T10:24:27.507Z,55.43
2023-10-20T10:27:04.258Z,55.48
2023-10-20T10:29:50.593Z,56.33
2023-10-20T10:32:22.089Z,56.60
2023-10-20T10:34:50.552Z,55.77
2023-10-20T10:37:35.962Z,55.36
2023-10-20T10:40:13.716Z,55.76
2023-10-20T10:42:49.547Z,56.31
2023-10-20T10:45:25.618Z,55.84
2023-10-20T10:48:12.507Z,55.30
2023-10-20T10:50:43.219Z,55.40
2023-10-20T10:53:14.031Z,56.25
2023-10-20T10:55:45.130Z,55.40
2023-10-20T10:58:16.160Z,55.28
2023-10-20T11:00:45.076Z,55.44
2023-10-20T11:03:13.024Z,55.41
2023-10-20T11:05:40.537Z,54.87
2023-10-20T11:08:09.100Z,55.38
2023-10-20T11:10:37.493Z,54.67
2023-10-20T11:13:09.084Z,54.71
2023-10-20T11:15:36.433Z,54.95
2023-10-20T11:18:08.130Z,54.68
2023-10-20T11:20:39.076Z,54.74
2023-10-20T11:23:10.442Z,54.53
2023-10-20T11:25:38.278Z,54.20
2023-10-20T11:28:06.239Z,54.87
2023-10-20T11:30:35.952Z,54.70
2023-10-20T11:33:04.927Z,55.05
2023-10-20T11:35:31.981Z,54.28
2023-10-20T11:37:59.448Z,54.61
2023-10-20T11:40:29.974Z,54.65
2023-10-20T11:42:57.452Z,54.54
2023-10-20T11:45:24.685Z,54.72
2023-10-20T11:47:52.621Z,54.75
2023-10-20T11:50:20.545Z,54.46
2023-10-20T11:52:48.683Z,54.72
2023-10-20T11:55:15.564Z,54.24
2023-10-20T11:57:42.962Z,54.14
2023-10-20T12:00:11.242Z,54.13
2023-10-20T12:02:39.694Z,54.10
2023-10-20T12:05:07.371Z,54.49
2023-10-20T12:07:34.657Z,54.14
2023-10-20T12:10:01.520Z,54.45
2023-10-20T12:12:29.557Z,54.12
2023-10-20T12:14:56.396Z,54.04
2023-10-20T12:17:25.661Z,54.04
2023-10-20T12:19:52.558Z,54.05
2023-10-20T12:22:19.766Z,53.94
2023-10-20T12:24:46.831Z,54.06
2023-10-20T12:27:14.682Z,54.11
2023-10-20T12:29:42.031Z,54.20
2023-10-20T12:32:13.861Z,54.22
2023-10-20T12:34:41.262Z,54.32
2023-10-20T12:37:09.024Z,54.03
2023-10-20T12:39:36.195Z,54.05
2023-10-20T12:42:06.797Z,54.14
2023-10-20T12:44:37.302Z,53.87
2023-10-20T12:47:07.297Z,54.12
2023-10-20T12:49:34.384Z,54.16
2023-10-20T12:52:01.576Z,53.93
2023-10-20T12:54:28.460Z,54.21
2023-10-20T12:56:56.102Z,54.23
2023-10-20T12:59:22.998Z,53.53
2023-10-20T13:01:51.213Z,53.80
2023-10-20T13:04:18.319Z,53.77
2023-10-20T13:06:59.301Z,53.71
2023-10-20T13:09:28.018Z,54.40
2023-10-20T13:11:57.578Z,54.26
2023-10-20T13:14:24.766Z,54.03
2023-10-20T13:16:52.266Z,54.40
2023-10-20T13:19:19.544Z,53.94
2023-10-20T13:21:46.737Z,54.30
2023-10-20T13:24:13.509Z,54.36
2023-10-20T13:26:40.770Z,54.37
2023-10-20T13:29:07.630Z,54.66
2023-10-20T13:31:35.231Z,55.02
2023-10-20T13:34:03.589Z,54.93
2023-10-20T13:36:30.817Z,55.21
2023-10-20T13:38:57.704Z,54.86
2023-10-20T13:41:25.233Z,55.13
2023-10-20T13:43:53.210Z,54.74
2023-10-20T13:46:20.783Z,55.04
2023-10-20T13:48:48.545Z,54.59
2023-10-20T13:51:16.505Z,54.45
2023-10-20T13:53:43.468Z,54.17
2023-10-20T13:56:10.758Z,54.52
2023-10-20T13:58:37.667Z,54.26
2023-10-20T14:01:04.911Z,54.14
2023-10-20T14:03:33.204Z,54.27
2023-10-20T14:06:00.687Z,54.54
2023-10-20T14:08:27.964Z,54.24
2023-10-20T14:10:56.666Z,54.38
2023-10-20T14:13:23.579Z,54.26
2023-10-20T14:15:50.926Z,54.47
2023-10-20T14:18:18.266Z,54.51
2023-10-20T14:20:45.521Z,54.64
2023-10-20T14:23:12.481Z,54.20
2023-10-20T14:25:39.697Z,54.35
2023-10-20T14:28:07.093Z,54.64
2023-10-20T14:30:34.508Z,54.54
2023-10-20T14:33:01.679Z,54.59
2023-10-20T14:35:29.233Z,54.69
2023-10-20T14:37:59.121Z,54.37
2023-10-20T14:40:27.410Z,54.23
2023-10-20T14:42:54.363Z,54.45
2023-10-20T14:45:21.643Z,54.45
2023-10-20T14:47:48.625Z,54.39
2023-10-20T14:50:15.825Z,54.58
2023-10-20T14:52:42.651Z,54.23
2023-10-20T14:55:12.698Z,54.17
2023-10-20T14:57:39.568Z,54.44
2023-10-20T15:00:11.014Z,54.63
2023-10-20T15:02:41.715Z,54.54
2023-10-20T15:05:09.930Z,54.39
2023-10-20T15:07:37.783Z,54.75
2023-10-20T15:10:05.750Z,54.75
2023-10-20T15:12:32.842Z,54.41
2023-10-20T15:15:00.784Z,54.28
2023-10-20T15:17:28.376Z,54.60
2023-10-20T15:19:55.419Z,54.53
2023-10-20T15:22:23.753Z,54.40
2023-10-20T15:24:53.045Z,54.93
2023-10-20T15:27:20.231Z,54.68
2023-10-20T15:29:47.303Z,54.31
2023-10-20T15:32:16.681Z,54.34
2023-10-20T15:34:43.723Z,54.68
2023-10-20T15:37:10.856Z,54.25
2023-10-20T15:39:49.165Z,54.51
2023-10-20T15:42:20.054Z,54.41
2023-10-20T15:44:46.907Z,54.47
2023-10-20T15:47:14.157Z,54.85
2023-10-20T15:49:41.353Z,54.87
2023-10-20T15:52:09.290Z,54.05
2023-10-20T15:54:36.210Z,53.80
2023-10-20T15:57:03.521Z,53.93
2023-10-20T15:59:31.355Z,53.51
2023-10-20T16:01:58.653Z,54.41
2023-10-20T16:04:25.783Z,53.60
2023-10-20T16:06:53.057Z,53.65
2023-10-20T16:09:20.313Z,53.70
2023-10-20T16:11:47.558Z,54.08
2023-10-20T16:14:14.436Z,54.17
2023-10-20T16:16:41.658Z,53.15
2023-10-20T16:19:08.568Z,54.00
2023-10-20T16:21:35.775Z,55.03
2023-10-20T16:24:02.716Z,54.86
2023-10-20T16:26:30.788Z,54.45
2023-10-20T16:28:57.736Z,54.86
2023-10-20T16:31:24.918Z,55.27
2023-10-20T16:33:54.952Z,55.31
2023-10-20T16:36:22.115Z,55.19
2023-10-20T16:38:49.004Z,55.06
2023-10-20T16:41:19.052Z,55.60
2023-10-20T16:43:45.931Z,55.63
2023-10-20T16:46:13.125Z,55.26
2023-10-20T16:48:41.855Z,55.58
2023-10-20T16:51:09.269Z,55.66
2023-10-20T16:53:36.552Z,55.76
2023-10-20T16:56:05.781Z,55.46
2023-10-20T16:58:32.564Z,56.08
2023-10-20T17:01:04.197Z,55.86
2023-10-20T17:03:31.376Z,56.29
2023-10-20T17:05:58.744Z,56.45
2023-10-20T17:08:27.245Z,56.61
2023-10-20T17:10:56.011Z,55.98
2023-10-20T17:13:22.887Z,56.04
2023-10-20T17:15:50.046Z,56.05
2023-10-20T17:18:17.004Z,56.24
2023-10-20T17:20:44.409Z,56.53
2023-10-20T17:23:11.578Z,56.00
2023-10-20T17:25:39.497Z,56.73
2023-10-20T17:28:06.583Z,56.92
2023-10-20T17:30:36.772Z,57.13
2023-10-20T17:33:05.190Z,57.16
2023-10-20T17:35:35.854Z,57.09
2023-10-20T17:38:02.844Z,56.65
2023-10-20T17:40:30.024Z,56.88
2023-10-20T17:42:56.860Z,57.13
2023-10-20T17:45:24.310Z,56.72
2023-10-20T17:47:51.443Z,56.39
2023-10-20T17:50:18.861Z,56.68
2023-10-20T17:52:46.350Z,56.63
2023-10-20T17:55:13.578Z,56.62
2023-10-20T17:57:40.443Z,56.17
2023-10-20T18:00:13.132Z,56.60
2023-10-20T18:02:40.241Z,56.57
2023-10-20T18:05:07.851Z,56.38
2023-10-20T18:07:34.730Z,56.47
2023-10-20T18:10:02.175Z,56.11
2023-10-20T18:12:29.197Z,56.80
2023-10-20T18:14:56.392Z,55.98
2023-10-20T18:17:23.387Z,55.49
2023-10-20T18:19:50.570Z,55.78
2023-10-20T18:22:18.249Z,55.89
2023-10-20T18:24:45.426Z,55.62
2023-10-20T18:27:12.305Z,56.31
2023-10-20T18:29:40.907Z,55.83
2023-10-20T18:32:07.760Z,56.15
2023-10-20T18:34:35.475Z,56.67
2023-10-20T18:37:02.970Z,56.40
2023-10-20T18:39:30.192Z,56.61
2023-10-20T18:41:57.170Z,55.97
2023-10-20T18:44:24.407Z,56.04
2023-10-20T18:46:51.682Z,56.19
2023-10-20T18:49:19.179Z,56.05
2023-10-20T18:51:46.032Z,56.55
2023-10-20T18:54:13.216Z,56.53
2023-10-20T18:56:40.129Z,56.49
2023-10-20T18:59:07.374Z,56.10
2023-10-20T19:01:34.293Z,56.38
2023-10-20T19:04:02.517Z,56.46
2023-10-20T19:06:29.797Z,56.36
2023-10-20T19:08:57.084Z,56.31
2023-10-20T19:11:24.155Z,56.27
2023-10-20T19:13:52.648Z,55.94
2023-10-20T19:16:19.608Z,56.26
2023-10-20T19:18:46.906Z,56.30
2023-10-20T19:21:13.892Z,56.38
2023-10-20T19:23:42.103Z,56.66
2023-10-20T19:26:11.516Z,56.23
2023-10-20T19:28:41.904Z,55.93
2023-10-20T19:31:09.242Z,56.25
2023-10-20T19:33:37.159Z,56.28
2023-10-20T19:36:06.294Z,56.18
2023-10-20T19:38:33.766Z,55.85
2023-10-20T19:41:00.838Z,56.18
2023-10-20T19:43:28.164Z,56.50
2023-10-20T19:45:55.047Z,56.49
2023-10-20T19:48:22.249Z,56.53
2023-10-20T19:50:49.131Z,56.08
2023-10-20T19:53:16.599Z,55.98
2023-10-20T19:55:44.190Z,56.02
2023-10-20T19:58:12.128Z,56.04
2023-10-20T20:00:40.736Z,56.05
2023-10-20T20:03:08.553Z,56.34
2023-10-20T20:05:36.977Z,56.20
2023-10-20T20:08:04.448Z,55.82
2023-10-20T20:10:31.361Z,56.01
2023-10-20T20:12:58.489Z,56.02
2023-10-20T20:15:25.515Z,55.92
2023-10-20T20:17:52.829Z,55.82
2023-10-20T20:20:19.934Z,56.14
2023-10-20T20:22:47.093Z,55.76
2023-10-20T20:25:13.970Z,55.79
2023-10-20T20:27:41.279Z,55.84
2023-10-20T20:30:08.835Z,56.00
2023-10-20T20:32:36.122Z,55.44
2023-10-20T20:35:04.579Z,55.99
2023-10-20T20:37:31.740Z,55.29
2023-10-20T20:39:58.655Z,55.93
2023-10-20T20:42:26.291Z,55.69
2023-10-20T20:44:53.204Z,55.82
2023-10-20T20:47:20.384Z,55.69
2023-10-20T20:49:47.195Z,55.34
2023-10-20T20:52:14.369Z,55.76
2023-10-20T20:54:41.211Z,55.49
2023-10-20T20:57:08.572Z,55.68
2023-10-20T20:59:36.248Z,55.23
2023-10-20T21:02:03.861Z,55.01
2023-10-20T21:04:31.077Z,55.27
2023-10-20T21:06:58.354Z,55.32
2023-10-20T21:09:25.427Z,55.19
2023-10-20T21:11:52.625Z,55.38
2023-10-20T21:14:19.549Z,55.50
2023-10-20T21:16:47.304Z,54.90
2023-10-20T21:19:14.980Z,55.15
2023-10-20T21:21:42.189Z,55.23
2023-10-20T21:24:09.399Z,55.32
2023-10-20T21:26:36.752Z,54.95
2023-10-20T21:29:06.806Z,54.94
2023-10-20T21:31:33.960Z,54.82
2023-10-20T21:34:00.761Z,55.01
2023-10-20T21:36:27.940Z,55.73
2023-10-20T21:38:54.825Z,55.14
2023-10-20T21:41:22.010Z,55.29
2023-10-20T21:43:48.822Z,55.29
2023-10-20T21:46:16.147Z,55.13
2023-10-20T21:48:43.138Z,55.13
2023-10-20T21:51:13.791Z,54.95
2023-10-20T21:53:40.757Z,55.29
2023-10-20T21:56:10.105Z,55.38
2023-10-20T21:58:38.463Z,55.16
2023-10-20T22:01:06.463Z,55.06
2023-10-20T22:03:33.724Z,54.67
2023-10-20T22:06:01.182Z,54.85
2023-10-20T22:08:28.103Z,55.25
2023-10-20T22:10:55.634Z,55.07
2023-10-20T22:13:22.593Z,54.77
2023-10-20T22:15:49.925Z,55.48
2023-10-20T22:18:16.876Z,55.58
2023-10-20T22:20:44.268Z,55.57
2023-10-20T22:23:11.328Z,55.45
2023-10-20T22:25:38.638Z,55.08
2023-10-20T22:28:06.095Z,54.86
2023-10-20T22:30:33.610Z,55.11
2023-10-20T22:33:01.005Z,55.09
2023-10-20T22:35:28.316Z,55.17
2023-10-20T22:37:55.207Z,55.16
2023-10-20T22:40:22.591Z,55.18
2023-10-20T22:42:49.444Z,55.42
2023-10-20T22:45:16.612Z,55.30
2023-10-20T22:47:43.530Z,55.08
2023-10-20T22:50:10.953Z,55.34
2023-10-20T22:52:37.812Z,55.48
2023-10-20T22:55:05.404Z,55.17
2023-10-20T22:57:33.032Z,55.20
2023-10-20T23:00:00.593Z,54.80
2023-10-20T23:02:27.664Z,55.00
2023-10-20T23:04:54.985Z,55.15
2023-10-20T23:07:21.778Z,54.86
2023-10-20T23:09:48.969Z,55.07
2023-10-20T23:12:17.834Z,55.24
2023-10-20T23:14:45.175Z,54.70
2023-10-20T23:17:11.990Z,54.82
2023-10-20T23:19:39.208Z,55.27
2023-10-20T23:22:06.088Z,55.42
2023-10-20T23:24:33.185Z,54.95
2023-10-20T23:27:01.269Z,54.95
2023-10-20T23:29:28.681Z,54.88
2023-10-20T23:31:55.476Z,54.65
2023-10-20T23:34:22.623Z,55.17
2023-10-20T23:36:49.488Z,55.00
2023-10-20T23:39:16.613Z,54.62
2023-10-20T23:41:43.615Z,55.20
2023-10-20T23:44:10.766Z,55.24
2023-10-20T23:46:37.566Z,55.08
2023-10-20T23:49:04.679Z,55.28
2023-10-20T23:51:31.452Z,54.58
2023-10-20T23:53:58.603Z,55.13
2023-10-20T23:56:26.200Z,54.62
2023-10-20T23:58:53.343Z,54.90
